Terminal Aerodrome Forecast
Issued by NWS Omaha/Valley, NE

Home | Current Version | Previous Version | Graphics & Text | Print | Product List | Glossary On
Versions: 1 2 3 4 5 6 7 8 9 10 11 12 13 14 15
000
FTUS43 KOAX 280208 AAA
TAFOFK
TAF AMD
KOFK 280208Z 2802/2824 27008KT P6SM SCT080 BKN250
     FM280700 27008KT P6SM FEW250
     FM281400 29015G25KT P6SM SCT250
     FM281700 30020G28KT P6SM SCT040
     FM282300 31013KT P6SM SKC=

USA.gov is the U.S. government's official web portal to all federal, state and local government web resources and services.